createdAt,value
2022-08-07T00:00:00.000Z,10.25
2022-08-07T00:15:00.000Z,8.54
2022-08-07T00:30:00.000Z,7.82
2022-08-07T00:45:00.000Z,8.81
2022-08-07T01:00:00.000Z,9.55
2022-08-07T01:15:00.000Z,8.8
2022-08-07T01:30:00.000Z,8.45
2022-08-07T01:45:00.000Z,8.38
2022-08-07T02:00:00.000Z,9.56
2022-08-07T02:15:00.000Z,8.62
2022-08-07T02:45:00.000Z,8
2022-08-07T02:45:00.000Z,8.05
2022-08-07T03:00:00.000Z,8.24
2022-08-07T03:15:00.000Z,9.44
2022-08-07T03:30:00.000Z,8.4
2022-08-07T03:45:00.000Z,7.39
2022-08-07T04:00:00.000Z,9.6
2022-08-07T04:15:00.000Z,10.4
2022-08-07T04:30:00.000Z,10.67
2022-08-07T04:45:00.000Z,9.96
2022-08-07T05:00:00.000Z,10.12
2022-08-07T05:15:00.000Z,10.28
2022-08-07T05:30:00.000Z,10.08
2022-08-07T05:45:00.000Z,10.51
2022-08-07T06:00:00.000Z,10.55
2022-08-07T06:15:00.000Z,10.41
2022-08-07T06:30:00.000Z,10.18
2022-08-07T06:45:00.000Z,10.62
2022-08-07T07:00:00.000Z,11.76
2022-08-07T07:15:00.000Z,11.09
2022-08-07T07:30:00.000Z,8.53
2022-08-07T07:45:00.000Z,7.08
2022-08-07T08:00:00.000Z,6.33
2022-08-07T08:15:00.000Z,4.74
2022-08-07T08:30:00.000Z,4.71
2022-08-07T08:45:00.000Z,4.71
2022-08-07T09:00:00.000Z,4.82
2022-08-07T09:15:00.000Z,4.87
2022-08-07T09:30:00.000Z,4.33
2022-08-07T10:00:00.000Z,5
2022-08-07T10:00:00.000Z,4.38
2022-08-07T10:15:00.000Z,4.48
2022-08-07T10:30:00.000Z,4.44
2022-08-07T10:45:00.000Z,4.68
2022-08-07T11:00:00.000Z,4.25
2022-08-07T11:15:00.000Z,4.56
2022-08-07T11:30:00.000Z,4.55
2022-08-07T11:45:00.000Z,4.14
2022-08-07T12:00:00.000Z,4.28
2022-08-07T12:15:00.000Z,4.76
2022-08-07T12:30:00.000Z,4.45
2022-08-07T12:45:00.000Z,4.62
2022-08-07T13:00:00.000Z,5.05
2022-08-07T13:15:00.000Z,5.54
2022-08-07T13:30:00.000Z,5.01
2022-08-07T13:45:00.000Z,4.88
2022-08-07T14:00:00.000Z,5.35
2022-08-07T14:15:00.000Z,5.33
2022-08-07T14:30:00.000Z,6.31
2022-08-07T14:45:00.000Z,6.14
2022-08-07T15:00:00.000Z,5.76
2022-08-07T15:30:00.000Z,5.08
2022-08-07T15:45:00.000Z,5.81
2022-08-07T16:00:00.000Z,6.21
2022-08-07T16:15:00.000Z,5.05
2022-08-07T16:30:00.000Z,5.84
2022-08-07T16:45:00.000Z,6.26
2022-08-07T17:00:00.000Z,6.6
2022-08-07T17:15:00.000Z,5.44
2022-08-07T17:30:00.000Z,7
2022-08-07T17:45:00.000Z,6.38
2022-08-07T18:00:00.000Z,5.99
2022-08-07T18:15:00.000Z,6.2
2022-08-07T18:30:00.000Z,5.18
2022-08-07T18:45:00.000Z,4.79
2022-08-07T19:00:00.000Z,4.98
2022-08-07T19:15:00.000Z,5.36
2022-08-07T19:30:00.000Z,7.52
2022-08-07T19:45:00.000Z,5.14
2022-08-07T20:00:00.000Z,6.2
2022-08-07T20:15:00.000Z,6.31
2022-08-07T20:30:00.000Z,6.41
2022-08-07T20:45:00.000Z,6.55
2022-08-07T21:00:00.000Z,6.18
2022-08-07T21:15:00.000Z,6.44
2022-08-07T21:30:00.000Z,6.89
2022-08-07T21:45:00.000Z,6.94
2022-08-07T22:00:00.000Z,7.08
2022-08-07T22:15:00.000Z,6.99
2022-08-07T22:30:00.000Z,6.88
2022-08-07T22:45:00.000Z,6.94
2022-08-07T23:00:00.000Z,6.73
2022-08-07T23:15:00.000Z,4.69
2022-08-07T23:30:00.000Z,4.56
2022-08-07T23:45:00.000Z,4.36
